Estación Meteorológica Peña el Pijo (Robertgarden) [ 04/19/21 05:19:23 CEST ]

Fecha Hora Presion(HPa) Temp (°C) Humedad % Rocio (°C) Viento ( m/s) Direccion Lluvia 1Hora(mm) Lluvia 24H(mm) LLuvia Total(mm)
2021-Jan-31 01:09:34 1002.000 6.7 63 0.1 - N     89.61
2021-Jan-31 02:13:48 1002.300 6.4 65 0.3 - N     89.61
2021-Jan-31 03:12:08 1001.900 6.3 67 0.6 - N     89.61
2021-Jan-31 04:09:26 1002.000 6.1 70 1.1 - N     89.61
2021-Jan-31 05:09:43 1001.800 5.6 73 1.1 - N     89.61
2021-Jan-31 06:09:32 1002.200 5.4 72 0.8 - N     89.61
2021-Jan-31 07:09:14 1002.700 5.4 70 0.4 - N     89.61
2021-Jan-31 08:09:15 1003.400 5.9 67 0.2 - N     89.61
2021-Jan-31 09:09:49 1004.100 6.9 66 1.0 - N     89.61
2021-Jan-31 10:09:41 1004.400 14.9 47 3.6 - N     89.61
2021-Jan-31 11:10:07 1004.800 9.9 64 3.4 - N     89.61
2021-Jan-31 12:09:50 1004.800 12.1 60 4.6 - N     89.61
2021-Jan-31 13:09:06 1004.900 11.5 65 5.1 - N     89.61
2021-Jan-31 14:09:19 1004.300 11.7 66 5.5 - N     89.61
2021-Jan-31 15:10:00 1004.000 10.6 74 6.2 - N     89.61
2021-Jan-31 16:09:29 1003.600 10.4 73 5.8 - N     89.61
2021-Jan-31 17:09:37 1003.500 10.1 74 5.7 - N     89.61
2021-Jan-31 18:09:32 1003.000 10.1 74 5.7 - N     89.61
2021-Jan-31 19:09:27 1003.400 10.1 76 6.0 - N     89.61
2021-Jan-31 20:09:29 1003.500 10.4 77 6.5 - N     89.61
2021-Jan-31 21:09:24 1003.400 10.1 78 6.4 - N     89.61
2021-Jan-31 22:09:32 1003.600 10.4 76 6.3 - N     89.61
2021-Jan-31 23:09:34 1003.500 10.4 76 6.3 - N     89.61

Temperatura Máxima:14°    Temperatura Mínima:
Presión Máxima:1004.900 Hpa    Presión Mínima:1001.800 Hpa


Volver